createdAt,value
2023-01-10T00:01:42.760Z,100081.98
2023-01-10T00:04:11.011Z,100086.59
2023-01-10T00:06:39.014Z,100089.93
2023-01-10T00:09:06.988Z,100094.61
2023-01-10T00:11:53.411Z,100097.55
2023-01-10T00:14:21.405Z,100094.08
2023-01-10T00:16:49.358Z,100092.84
2023-01-10T00:19:17.374Z,100088.67
2023-01-10T00:21:45.361Z,100087.32
2023-01-10T00:24:19.131Z,100091.14
2023-01-10T00:26:51.154Z,100090.49
2023-01-10T00:29:19.799Z,100092.50
2023-01-10T00:31:48.097Z,100087.91
2023-01-10T00:34:16.282Z,100088.30
2023-01-10T00:36:45.786Z,100088.05
2023-01-10T00:39:14.795Z,100093.04
2023-01-10T00:42:01.317Z,100099.54
2023-01-10T00:44:29.283Z,100092.09
2023-01-10T00:46:57.461Z,100092.30
2023-01-10T00:49:25.328Z,100092.15
2023-01-10T00:51:53.408Z,100094.21
2023-01-10T00:54:21.431Z,100106.04
2023-01-10T00:56:49.514Z,100107.58
2023-01-10T00:59:17.509Z,100109.40
2023-01-10T01:01:45.540Z,100103.22
2023-01-10T01:04:13.797Z,100093.69
2023-01-10T01:06:43.394Z,100093.77
2023-01-10T01:09:11.313Z,100102.52
2023-01-10T01:11:39.228Z,100104.02
2023-01-10T01:14:07.124Z,100094.35
2023-01-10T01:16:35.048Z,100089.17
2023-01-10T01:19:03.023Z,100084.23
2023-01-10T01:21:31.063Z,100079.84
2023-01-10T01:23:59.066Z,100062.84
2023-01-10T01:26:26.978Z,100060.11
2023-01-10T01:28:55.103Z,100058.90
2023-01-10T01:31:23.254Z,100055.45
2023-01-10T01:33:51.780Z,100060.64
2023-01-10T01:36:20.235Z,100060.97
2023-01-10T01:38:48.321Z,100058.52
2023-01-10T01:41:34.897Z,100058.02
2023-01-10T01:44:07.414Z,100061.27
2023-01-10T01:46:37.144Z,100061.02
2023-01-10T01:49:07.028Z,100050.23
2023-01-10T01:51:35.182Z,100048.51
2023-01-10T01:54:07.571Z,100046.14
2023-01-10T01:56:42.989Z,100043.58
2023-01-10T01:59:17.677Z,100042.08
2023-01-10T02:01:47.049Z,100037.80
2023-01-10T02:04:17.956Z,100038.60
2023-01-10T02:06:51.899Z,100038.34
2023-01-10T02:09:26.284Z,100037.92
2023-01-10T02:11:54.829Z,100040.70
2023-01-10T02:14:24.652Z,100046.01
2023-01-10T02:16:52.901Z,100037.98
2023-01-10T02:19:23.921Z,100032.72
2023-01-10T02:22:30.534Z,100028.29
2023-01-10T02:24:58.459Z,100018.57
2023-01-10T02:27:28.402Z,100023.60
2023-01-10T02:30:15.336Z,100033.09
2023-01-10T02:33:04.506Z,100037.27
2023-01-10T02:35:35.525Z,100034.83
2023-01-10T02:38:21.836Z,100030.60
2023-01-10T02:40:49.848Z,100033.13
2023-01-10T02:43:21.059Z,100031.34
2023-01-10T02:45:55.349Z,100034.05
2023-01-10T02:48:23.654Z,100039.30
2023-01-10T02:51:17.648Z,100037.95
2023-01-10T02:53:49.349Z,100038.60
2023-01-10T02:56:17.350Z,100030.39
2023-01-10T02:58:57.566Z,100026.35
2023-01-10T03:01:45.826Z,100024.73
2023-01-10T03:04:13.944Z,100022.85
2023-01-10T03:06:48.758Z,100027.29
2023-01-10T03:09:21.970Z,100023.05
2023-01-10T03:11:51.857Z,100023.95
2023-01-10T03:14:24.699Z,100025.43
2023-01-10T03:16:59.178Z,100024.17
2023-01-10T03:19:29.680Z,100024.86
2023-01-10T03:21:59.990Z,100026.70
2023-01-10T03:24:31.663Z,100021.50
2023-01-10T03:27:03.116Z,100019.36
2023-01-10T03:29:35.518Z,100018.19
2023-01-10T03:32:06.151Z,100015.94
2023-01-10T03:34:35.062Z,100015.21
2023-01-10T03:37:12.713Z,100015.28
2023-01-10T03:39:55.916Z,100016.19
2023-01-10T03:42:29.957Z,100015.21
2023-01-10T03:44:57.803Z,100014.16
2023-01-10T03:47:31.028Z,100017.72
2023-01-10T03:50:07.471Z,100018.67
2023-01-10T03:52:36.693Z,100022.95
2023-01-10T03:55:05.783Z,100028.45
2023-01-10T03:57:33.825Z,100029.20
2023-01-10T04:00:01.945Z,100030.49
2023-01-10T04:02:32.618Z,100029.35
2023-01-10T04:05:01.733Z,100021.80
2023-01-10T04:07:29.725Z,100021.40
2023-01-10T04:09:57.879Z,100016.68
2023-01-10T04:12:25.992Z,100009.92
2023-01-10T04:14:54.233Z,100005.83
2023-01-10T04:17:24.618Z,100007.91
2023-01-10T04:19:52.788Z,100007.13
2023-01-10T04:22:20.739Z,99998.63
2023-01-10T04:24:51.358Z,99995.43
2023-01-10T04:27:20.346Z,99995.45
2023-01-10T04:29:48.355Z,99997.45
2023-01-10T04:32:16.297Z,99992.39
2023-01-10T04:34:44.430Z,99990.55
2023-01-10T04:37:12.461Z,99994.80
2023-01-10T04:39:40.445Z,99993.80
2023-01-10T04:42:08.410Z,99989.05
2023-01-10T04:44:36.555Z,99984.19
2023-01-10T04:47:04.534Z,99980.90
2023-01-10T04:49:32.464Z,99975.98
2023-01-10T04:52:00.681Z,99973.12
2023-01-10T04:54:28.591Z,99971.85
2023-01-10T04:56:56.927Z,99963.67
2023-01-10T04:59:24.964Z,99962.95
2023-01-10T05:01:52.958Z,99963.56
2023-01-10T05:04:21.117Z,99963.23
2023-01-10T05:06:49.781Z,99959.70
2023-01-10T05:09:17.799Z,99954.21
2023-01-10T05:11:45.804Z,99951.42
2023-01-10T05:14:13.776Z,99949.65
2023-01-10T05:16:41.758Z,99951.05
2023-01-10T05:19:09.845Z,99951.80
2023-01-10T05:21:37.802Z,99959.77
2023-01-10T05:24:05.919Z,99969.16
2023-01-10T05:26:34.130Z,99981.21
2023-01-10T05:29:02.116Z,99985.11
2023-01-10T05:31:30.187Z,99990.14
2023-01-10T05:33:58.203Z,99989.36
2023-01-10T05:36:26.176Z,99985.80
2023-01-10T05:38:54.191Z,99979.08
2023-01-10T05:41:22.174Z,99971.52
2023-01-10T05:43:50.299Z,99961.64
2023-01-10T05:46:18.540Z,99953.28
2023-01-10T05:48:46.558Z,99946.66
2023-01-10T05:51:14.741Z,99956.16
2023-01-10T05:53:43.540Z,99956.41
2023-01-10T05:56:11.579Z,99968.77
2023-01-10T05:58:39.799Z,99974.14
2023-01-10T06:01:07.864Z,99978.00
2023-01-10T06:03:36.277Z,99972.37
2023-01-10T06:06:04.476Z,99968.02
2023-01-10T06:08:32.493Z,99968.80
2023-01-10T06:11:00.399Z,99974.90
2023-01-10T06:13:28.315Z,99981.52
2023-01-10T06:15:56.789Z,99978.63
2023-01-10T06:18:24.912Z,99976.27
2023-01-10T06:20:54.171Z,99966.55
2023-01-10T06:23:22.219Z,99958.27
2023-01-10T06:25:50.469Z,99952.94
2023-01-10T06:28:19.188Z,99953.29
2023-01-10T06:30:47.199Z,99951.33
2023-01-10T06:33:15.324Z,99954.74
2023-01-10T06:35:44.173Z,99956.32
2023-01-10T06:38:12.378Z,99955.65
2023-01-10T06:40:40.464Z,99961.38
2023-01-10T06:43:08.623Z,99967.23
2023-01-10T06:45:36.805Z,99973.18
2023-01-10T06:48:05.382Z,99981.36
2023-01-10T06:50:33.688Z,99978.36
2023-01-10T06:53:03.125Z,99980.73
2023-01-10T06:55:31.639Z,99987.73
2023-01-10T06:58:01.246Z,99991.02
2023-01-10T07:00:30.016Z,99986.11
2023-01-10T07:02:58.768Z,99985.98
2023-01-10T07:05:27.173Z,99992.48
2023-01-10T07:07:57.169Z,99993.68
2023-01-10T07:10:25.062Z,99998.39
2023-01-10T07:12:55.024Z,99996.22
2023-01-10T07:15:23.708Z,99994.89
2023-01-10T07:17:51.986Z,99995.98
2023-01-10T07:20:20.156Z,99993.87
2023-01-10T07:22:58.547Z,99986.67
2023-01-10T07:25:27.674Z,99978.21
2023-01-10T07:27:55.745Z,99981.25
2023-01-10T07:30:25.541Z,99988.41
2023-01-10T07:32:55.696Z,99988.89
2023-01-10T07:35:24.479Z,99982.79
2023-01-10T07:37:52.844Z,99972.78
2023-01-10T07:40:21.144Z,99966.42
2023-01-10T07:42:50.242Z,99970.57
2023-01-10T07:45:18.290Z,99973.15
2023-01-10T07:47:48.109Z,99979.70
2023-01-10T07:50:18.120Z,99978.90
2023-01-10T07:52:46.208Z,99979.48
2023-01-10T07:55:14.465Z,99974.80
2023-01-10T07:57:42.848Z,99976.77
2023-01-10T08:00:11.228Z,99983.88
2023-01-10T08:02:40.368Z,99980.98
2023-01-10T08:05:08.906Z,99984.99
2023-01-10T08:07:37.284Z,99985.72
2023-01-10T08:10:05.690Z,99987.04
2023-01-10T08:12:34.144Z,99984.32
2023-01-10T08:15:02.422Z,99987.90
2023-01-10T08:17:33.154Z,99992.05
2023-01-10T08:20:01.493Z,99994.77
2023-01-10T08:22:29.503Z,99989.78
2023-01-10T08:24:57.586Z,99987.77
2023-01-10T08:27:25.761Z,99986.79
2023-01-10T08:29:53.822Z,99984.55
2023-01-10T08:32:22.727Z,99978.06
2023-01-10T08:34:50.893Z,99967.40
2023-01-10T08:37:18.959Z,99963.48
2023-01-10T08:39:47.132Z,99959.30
2023-01-10T08:42:17.160Z,99966.02
2023-01-10T08:44:45.357Z,99974.06
2023-01-10T08:47:13.402Z,99981.05
2023-01-10T08:49:41.677Z,99985.44
2023-01-10T08:52:09.863Z,99989.10
2023-01-10T08:54:37.929Z,99995.52
2023-01-10T08:57:06.099Z,100002.03
2023-01-10T08:59:34.064Z,99992.30
2023-01-10T09:02:02.420Z,99990.25
2023-01-10T09:04:32.978Z,99983.05
2023-01-10T09:07:01.352Z,99980.91
2023-01-10T09:09:31.458Z,99975.21
2023-01-10T09:11:59.749Z,99974.02
2023-01-10T09:14:28.454Z,99972.94
2023-01-10T09:16:56.501Z,99974.42
2023-01-10T09:19:24.486Z,99977.95
2023-01-10T09:21:52.455Z,99980.58
2023-01-10T09:24:20.417Z,99973.38
2023-01-10T09:26:48.706Z,99970.64
2023-01-10T09:29:16.768Z,99970.52
2023-01-10T09:31:44.802Z,99969.98
2023-01-10T09:34:12.912Z,99969.48
2023-01-10T09:36:41.083Z,99966.69
2023-01-10T09:39:09.358Z,99952.89
2023-01-10T09:41:50.334Z,99944.47
2023-01-10T09:44:18.718Z,99935.02
2023-01-10T09:46:52.804Z,99930.77
2023-01-10T09:49:26.742Z,99932.70
2023-01-10T09:51:59.110Z,99932.27
2023-01-10T09:54:32.404Z,99932.39
2023-01-10T09:57:01.802Z,99930.34
2023-01-10T09:59:38.898Z,99924.20
2023-01-10T10:02:17.404Z,99914.04
2023-01-10T10:04:48.141Z,99901.15
2023-01-10T10:07:17.949Z,99893.26
2023-01-10T10:09:45.923Z,99898.80
2023-01-10T10:12:26.178Z,99899.39
2023-01-10T10:15:26.920Z,99899.87
2023-01-10T10:18:13.317Z,99901.94
2023-01-10T10:20:41.288Z,99904.30
2023-01-10T10:23:12.124Z,99903.90
2023-01-10T10:25:43.825Z,99898.27
2023-01-10T10:28:20.557Z,99896.47
2023-01-10T10:30:51.617Z,99894.82
2023-01-10T10:33:25.403Z,99889.51
2023-01-10T10:35:57.469Z,99885.04
2023-01-10T10:38:30.053Z,99880.88
2023-01-10T10:41:01.416Z,99884.84
2023-01-10T10:43:34.897Z,99883.08
2023-01-10T10:46:08.202Z,99881.64
2023-01-10T10:48:50.916Z,99869.75
2023-01-10T10:51:26.021Z,99863.44
2023-01-10T10:53:54.935Z,99863.86
2023-01-10T10:56:24.851Z,99849.27
2023-01-10T10:58:55.684Z,99838.13
2023-01-10T11:01:26.333Z,99833.52
2023-01-10T11:03:54.798Z,99833.30
2023-01-10T11:06:24.610Z,99826.70
2023-01-10T11:08:55.691Z,99814.36
2023-01-10T11:11:23.735Z,99816.31
2023-01-10T11:13:54.254Z,99814.73
2023-01-10T11:16:33.425Z,99815.79
2023-01-10T11:19:20.813Z,99817.38
2023-01-10T11:21:49.011Z,99810.98
2023-01-10T11:24:20.232Z,99809.19
2023-01-10T11:26:48.513Z,99808.55
2023-01-10T11:29:27.777Z,99806.99
2023-01-10T11:31:57.508Z,99805.80
2023-01-10T11:34:25.730Z,99801.13
2023-01-10T11:36:56.566Z,99799.16
2023-01-10T11:39:25.457Z,99801.48
2023-01-10T11:41:56.000Z,99796.38
2023-01-10T11:44:28.667Z,99794.38
2023-01-10T11:46:58.385Z,99799.44
2023-01-10T11:49:26.347Z,99797.06
2023-01-10T11:51:58.004Z,99791.61
2023-01-10T11:54:27.915Z,99783.30
2023-01-10T11:57:01.415Z,99785.75
2023-01-10T11:59:29.489Z,99786.09
2023-01-10T12:02:21.027Z,99782.11
2023-01-10T12:04:50.130Z,99783.38
2023-01-10T12:07:19.310Z,99782.55
2023-01-10T12:09:57.317Z,99784.11
2023-01-10T12:12:29.855Z,99781.48
2023-01-10T12:14:59.396Z,99778.52
2023-01-10T12:17:35.765Z,99775.01
2023-01-10T12:20:06.811Z,99772.80
2023-01-10T12:22:43.172Z,99775.34
2023-01-10T12:25:31.721Z,99775.89
2023-01-10T12:28:00.718Z,99780.16
2023-01-10T12:30:35.291Z,99786.95
2023-01-10T12:33:06.786Z,99778.73
2023-01-10T12:36:05.887Z,99774.55
2023-01-10T12:38:55.979Z,99770.98
2023-01-10T12:42:05.631Z,99768.14
2023-01-10T12:44:39.848Z,99765.50
2023-01-10T12:47:14.654Z,99767.77
2023-01-10T12:49:47.343Z,99765.63
2023-01-10T12:52:23.158Z,99764.75
2023-01-10T12:54:51.582Z,99764.92
2023-01-10T12:57:26.327Z,99767.52
2023-01-10T12:59:55.510Z,99770.27
2023-01-10T13:02:25.622Z,99768.98
2023-01-10T13:04:57.487Z,99768.52
2023-01-10T13:07:28.666Z,99764.02
2023-01-10T13:09:56.804Z,99763.54
2023-01-10T13:12:34.318Z,99762.04
2023-01-10T13:15:21.726Z,99767.11
2023-01-10T13:17:53.083Z,99766.00
2023-01-10T13:20:24.732Z,99762.95
2023-01-10T13:23:10.520Z,99764.53
2023-01-10T13:25:39.813Z,99759.98
2023-01-10T13:28:20.690Z,99760.25
2023-01-10T13:30:54.209Z,99760.10
2023-01-10T13:33:24.728Z,99760.77
2023-01-10T13:35:54.530Z,99762.88
2023-01-10T13:38:25.058Z,99763.39
2023-01-10T13:41:04.746Z,99765.27
2023-01-10T13:43:36.948Z,99768.88
2023-01-10T13:46:17.219Z,99768.92
2023-01-10T13:48:51.585Z,99772.05
2023-01-10T13:51:20.699Z,99769.84
2023-01-10T13:53:55.351Z,99764.56
2023-01-10T13:56:29.501Z,99765.02
2023-01-10T13:59:16.082Z,99763.79
2023-01-10T14:02:03.897Z,99759.95
2023-01-10T14:04:34.818Z,99765.02
2023-01-10T14:07:21.399Z,99763.52
2023-01-10T14:09:50.711Z,99765.53
2023-01-10T14:12:25.107Z,99760.30
2023-01-10T14:14:55.775Z,99760.40
2023-01-10T14:17:37.165Z,99761.58
2023-01-10T14:20:05.197Z,99765.61
2023-01-10T14:22:37.511Z,99766.39
2023-01-10T14:25:08.179Z,99766.09
2023-01-10T14:27:44.906Z,99765.90
2023-01-10T14:30:18.466Z,99764.43
2023-01-10T14:32:49.137Z,99768.98
2023-01-10T14:35:19.128Z,99768.06
2023-01-10T14:37:53.250Z,99768.02
2023-01-10T14:40:35.395Z,99773.66
2023-01-10T14:43:06.384Z,99770.41
2023-01-10T14:45:48.016Z,99767.83
2023-01-10T14:48:27.531Z,99765.95
2023-01-10T14:51:10.658Z,99771.65
2023-01-10T14:53:38.899Z,99772.73
2023-01-10T14:56:20.646Z,99770.38
2023-01-10T14:58:48.640Z,99772.17
2023-01-10T15:01:27.163Z,99771.30
2023-01-10T15:03:57.111Z,99770.95
2023-01-10T15:06:26.123Z,99768.17
2023-01-10T15:08:58.748Z,99766.85
2023-01-10T15:11:27.660Z,99762.81
2023-01-10T15:14:00.124Z,99760.40
2023-01-10T15:16:28.874Z,99765.13
2023-01-10T15:18:58.455Z,99765.66
2023-01-10T15:21:26.528Z,99769.95
2023-01-10T15:23:54.990Z,99778.55
2023-01-10T15:26:25.818Z,99777.35
2023-01-10T15:29:06.086Z,99773.33
2023-01-10T15:31:38.620Z,99772.38
2023-01-10T15:34:08.269Z,99774.08
2023-01-10T15:36:36.460Z,99775.25
2023-01-10T15:39:04.431Z,99775.17
2023-01-10T15:41:35.242Z,99780.70
2023-01-10T15:44:22.253Z,99783.02
2023-01-10T15:46:54.472Z,99785.40
2023-01-10T15:49:26.880Z,99786.09
2023-01-10T15:51:55.004Z,99787.90
2023-01-10T15:54:23.248Z,99788.47
2023-01-10T15:56:52.855Z,99788.01
2023-01-10T15:59:35.566Z,99786.35
2023-01-10T16:02:04.193Z,99788.27
2023-01-10T16:04:36.323Z,99785.48
2023-01-10T16:07:26.824Z,99784.04
2023-01-10T16:10:02.940Z,99782.86
2023-01-10T16:12:57.433Z,99780.04
2023-01-10T16:15:26.675Z,99789.38
2023-01-10T16:17:54.851Z,99793.11
2023-01-10T16:20:29.988Z,99786.56
2023-01-10T16:23:01.248Z,99794.31
2023-01-10T16:25:35.557Z,99798.19
2023-01-10T16:28:03.621Z,99802.36
2023-01-10T16:30:33.362Z,99807.34
2023-01-10T16:33:12.115Z,99808.08
2023-01-10T16:35:40.229Z,99813.45
2023-01-10T16:38:09.953Z,99812.61
2023-01-10T16:40:40.122Z,99812.81
2023-01-10T16:43:25.968Z,99818.83
2023-01-10T16:45:54.915Z,99819.69
2023-01-10T16:48:23.225Z,99822.05
2023-01-10T16:50:51.388Z,99827.15
2023-01-10T16:53:20.492Z,99829.27
2023-01-10T16:55:53.465Z,99831.54
2023-01-10T16:58:24.008Z,99830.33
2023-01-10T17:00:53.031Z,99825.89
2023-01-10T17:03:22.092Z,99830.55
2023-01-10T17:05:50.826Z,99834.84
2023-01-10T17:08:20.383Z,99835.14
2023-01-10T17:10:51.122Z,99834.64
2023-01-10T17:13:31.332Z,99834.41
2023-01-10T17:15:59.579Z,99829.88
2023-01-10T17:18:28.942Z,99833.24
2023-01-10T17:20:57.986Z,99837.27
2023-01-10T17:23:29.807Z,99843.85
2023-01-10T17:26:05.661Z,99843.27
2023-01-10T17:28:34.245Z,99846.42
2023-01-10T17:31:03.346Z,99845.96
2023-01-10T17:33:31.412Z,99845.06
2023-01-10T17:36:00.013Z,99842.92
2023-01-10T17:38:30.349Z,99839.73
2023-01-10T17:41:02.900Z,99846.29
2023-01-10T17:43:31.177Z,99849.98
2023-01-10T17:45:59.283Z,99849.66
2023-01-10T17:48:28.282Z,99849.91
2023-01-10T17:50:57.856Z,99850.64
2023-01-10T17:53:26.152Z,99854.59
2023-01-10T17:55:54.420Z,99855.98
2023-01-10T17:58:22.683Z,99852.05
2023-01-10T18:00:51.420Z,99851.69
2023-01-10T18:03:19.863Z,99845.13
2023-01-10T18:05:52.435Z,99843.29
2023-01-10T18:08:21.316Z,99849.89
2023-01-10T18:10:50.104Z,99854.19
2023-01-10T18:13:23.416Z,99857.40
2023-01-10T18:15:52.597Z,99857.09
2023-01-10T18:18:23.179Z,99853.39
2023-01-10T18:20:57.449Z,99861.35
2023-01-10T18:23:27.018Z,99863.05
2023-01-10T18:25:56.776Z,99865.08
2023-01-10T18:28:39.513Z,99870.91
2023-01-10T18:31:10.816Z,99870.78
2023-01-10T18:33:40.046Z,99868.93
2023-01-10T18:36:09.580Z,99871.40
2023-01-10T18:38:37.707Z,99879.14
2023-01-10T18:41:05.988Z,99881.98
2023-01-10T18:43:34.365Z,99883.39
2023-01-10T18:46:07.009Z,99877.60
2023-01-10T18:48:35.790Z,99879.02
2023-01-10T18:51:04.470Z,99879.89
2023-01-10T18:53:32.894Z,99879.68
2023-01-10T18:56:02.018Z,99881.16
2023-01-10T18:58:34.710Z,99885.52
2023-01-10T19:01:13.745Z,99890.76
2023-01-10T19:03:42.594Z,99899.09
2023-01-10T19:06:12.227Z,99913.21
2023-01-10T19:08:40.887Z,99920.85
2023-01-10T19:11:14.799Z,99932.40
2023-01-10T19:13:44.756Z,99927.17
2023-01-10T19:16:14.861Z,99932.21
2023-01-10T19:18:49.910Z,99926.84
2023-01-10T19:21:18.248Z,99935.70
2023-01-10T19:23:47.754Z,99941.40
2023-01-10T19:26:15.824Z,99944.54
2023-01-10T19:28:45.028Z,99942.64
2023-01-10T19:31:21.506Z,99943.94
2023-01-10T19:33:50.796Z,99943.49
2023-01-10T19:36:19.789Z,99943.20
2023-01-10T19:38:54.109Z,99947.39
2023-01-10T19:41:27.623Z,99953.59
2023-01-10T19:43:59.879Z,99955.11
2023-01-10T19:46:28.867Z,99949.91
2023-01-10T19:48:57.655Z,99952.99
2023-01-10T19:51:26.044Z,99956.56
2023-01-10T19:53:54.416Z,99969.19
2023-01-10T19:56:23.532Z,99977.18
2023-01-10T19:58:51.803Z,99973.20
2023-01-10T20:01:21.638Z,99967.17
2023-01-10T20:03:50.073Z,99972.46
2023-01-10T20:06:21.036Z,99978.92
2023-01-10T20:08:49.339Z,99974.57
2023-01-10T20:11:18.404Z,99991.23
2023-01-10T20:13:48.407Z,99993.59
2023-01-10T20:16:21.648Z,99996.92
2023-01-10T20:18:51.528Z,99989.17
2023-01-10T20:21:19.721Z,99990.64
2023-01-10T20:23:49.553Z,99994.33
2023-01-10T20:26:20.731Z,99992.96
2023-01-10T20:28:50.786Z,100002.64
2023-01-10T20:31:23.327Z,100015.63
2023-01-10T20:33:51.935Z,100007.17
2023-01-10T20:36:21.539Z,100007.12
2023-01-10T20:38:50.641Z,100005.02
2023-01-10T20:41:22.288Z,100007.99
2023-01-10T20:43:50.681Z,100013.91
2023-01-10T20:46:21.438Z,100014.61
2023-01-10T20:48:50.928Z,100018.08
2023-01-10T20:51:20.929Z,100027.17
2023-01-10T20:53:49.656Z,100035.67
2023-01-10T20:56:21.025Z,100046.58
2023-01-10T20:58:49.246Z,100049.59
2023-01-10T21:01:28.664Z,100061.90
2023-01-10T21:04:03.400Z,100048.10
2023-01-10T21:06:31.619Z,100056.57
2023-01-10T21:09:00.802Z,100060.19
2023-01-10T21:11:29.355Z,100068.79
2023-01-10T21:13:57.451Z,100080.54
2023-01-10T21:16:26.119Z,100089.46
2023-01-10T21:18:54.300Z,100087.77
2023-01-10T21:21:22.849Z,100097.12
2023-01-10T21:23:54.025Z,100097.59
2023-01-10T21:26:22.501Z,100101.19
2023-01-10T21:28:50.673Z,100108.88
2023-01-10T21:31:20.439Z,100103.30
2023-01-10T21:33:49.570Z,100098.11
2023-01-10T21:36:18.067Z,100092.73
2023-01-10T21:38:46.750Z,100087.20
2023-01-10T21:41:37.760Z,100087.49
2023-01-10T21:44:06.682Z,100081.11
2023-01-10T21:46:35.610Z,100088.55
2023-01-10T21:49:06.689Z,100102.41
2023-01-10T21:51:37.422Z,100101.61
2023-01-10T21:54:05.495Z,100111.52
2023-01-10T21:56:33.584Z,100113.38
2023-01-10T21:59:01.778Z,100119.71
2023-01-10T22:01:30.121Z,100125.19
2023-01-10T22:03:58.331Z,100125.88
2023-01-10T22:06:26.862Z,100127.70
2023-01-10T22:08:55.771Z,100125.94
2023-01-10T22:11:23.740Z,100133.68
2023-01-10T22:13:55.300Z,100137.11
2023-01-10T22:16:23.753Z,100141.46
2023-01-10T22:18:51.961Z,100138.39
2023-01-10T22:21:19.982Z,100141.54
2023-01-10T22:23:48.002Z,100143.02
2023-01-10T22:26:16.282Z,100143.41
2023-01-10T22:28:44.544Z,100146.52
2023-01-10T22:31:13.525Z,100147.41
2023-01-10T22:33:42.938Z,100133.27
2023-01-10T22:36:16.491Z,100129.79
2023-01-10T22:38:45.641Z,100137.98
2023-01-10T22:41:13.922Z,100150.64
2023-01-10T22:43:42.292Z,100155.18
2023-01-10T22:46:10.289Z,100158.00
2023-01-10T22:48:38.747Z,100156.84
2023-01-10T22:51:07.020Z,100155.17
2023-01-10T22:53:35.398Z,100150.71
2023-01-10T22:56:05.606Z,100151.79
2023-01-10T22:58:34.006Z,100160.08
2023-01-10T23:01:05.456Z,100174.68
2023-01-10T23:03:34.307Z,100176.46
2023-01-10T23:06:02.595Z,100174.23
2023-01-10T23:08:31.714Z,100180.81
2023-01-10T23:11:00.304Z,100177.88
2023-01-10T23:13:28.368Z,100170.72
2023-01-10T23:16:00.861Z,100165.84
2023-01-10T23:18:29.233Z,100170.95
2023-01-10T23:20:57.318Z,100173.80
2023-01-10T23:23:26.293Z,100176.40
2023-01-10T23:26:02.840Z,100170.97
2023-01-10T23:28:38.103Z,100161.06
2023-01-10T23:31:07.001Z,100160.01
2023-01-10T23:33:35.166Z,100163.27
2023-01-10T23:36:03.879Z,100179.79
2023-01-10T23:38:32.303Z,100188.98
2023-01-10T23:41:01.228Z,100179.17
2023-01-10T23:43:29.509Z,100183.42
2023-01-10T23:45:57.801Z,100193.48
2023-01-10T23:48:25.861Z,100192.70
2023-01-10T23:50:53.896Z,100197.97
2023-01-10T23:53:22.406Z,100220.05
2023-01-10T23:55:50.492Z,100237.90
2023-01-10T23:58:18.655Z,100241.87
